createdAt,value
2023-02-22T00:00:01.310Z,47.93
2023-02-22T00:02:34.279Z,47.93
2023-02-22T00:05:07.455Z,47.99
2023-02-22T00:07:40.294Z,48.01
2023-02-22T00:10:13.471Z,48.09
2023-02-22T00:12:46.677Z,48.07
2023-02-22T00:15:20.192Z,48.14
2023-02-22T00:17:53.694Z,48.17
2023-02-22T00:20:27.430Z,48.19
2023-02-22T00:23:00.310Z,48.17
2023-02-22T00:25:33.405Z,48.17
2023-02-22T00:28:06.354Z,48.26
2023-02-22T00:30:39.413Z,48.38
2023-02-22T00:33:12.260Z,48.46
2023-02-22T00:35:45.425Z,48.43
2023-02-22T00:38:18.197Z,48.46
2023-02-22T00:40:51.595Z,48.38
2023-02-22T00:43:24.520Z,48.37
2023-02-22T00:45:57.357Z,48.37
2023-02-22T00:48:30.344Z,48.45
2023-02-22T00:51:03.512Z,48.41
2023-02-22T00:53:36.605Z,48.40
2023-02-22T00:56:09.775Z,48.43
2023-02-22T00:58:43.642Z,48.36
2023-02-22T01:01:17.010Z,48.45
2023-02-22T01:03:49.574Z,48.43
2023-02-22T01:06:22.302Z,48.45
2023-02-22T01:08:55.394Z,48.40
2023-02-22T01:11:28.570Z,48.46
2023-02-22T01:14:01.629Z,48.39
2023-02-22T01:16:34.611Z,48.39
2023-02-22T01:19:07.419Z,48.36
2023-02-22T01:21:40.559Z,48.36
2023-02-22T01:24:13.371Z,48.36
2023-02-22T01:26:46.681Z,48.32
2023-02-22T01:29:19.292Z,48.32
2023-02-22T01:31:52.695Z,48.33
2023-02-22T01:34:25.733Z,48.33
2023-02-22T01:36:58.445Z,48.33
2023-02-22T01:39:31.979Z,48.34
2023-02-22T01:42:05.469Z,48.39
2023-02-22T01:44:38.487Z,48.37
2023-02-22T01:47:11.420Z,48.45
2023-02-22T01:49:44.503Z,48.44
2023-02-22T01:52:17.716Z,48.44
2023-02-22T01:54:50.648Z,48.46
2023-02-22T01:57:23.366Z,48.50
2023-02-22T01:59:56.391Z,48.44
2023-02-22T02:02:29.900Z,48.50
2023-02-22T02:05:03.515Z,48.58
2023-02-22T02:07:36.674Z,48.67
2023-02-22T02:10:09.465Z,48.71
2023-02-22T02:12:42.754Z,48.71
2023-02-22T02:15:15.533Z,48.64
2023-02-22T02:17:48.509Z,48.66
2023-02-22T02:20:21.340Z,48.67
2023-02-22T02:22:54.741Z,48.69
2023-02-22T02:25:27.367Z,48.65
2023-02-22T02:28:00.578Z,48.68
2023-02-22T02:30:33.808Z,48.68
2023-02-22T02:33:06.397Z,48.62
2023-02-22T02:35:39.667Z,48.68
2023-02-22T02:38:12.430Z,48.64
2023-02-22T02:40:45.699Z,48.71
2023-02-22T02:43:18.581Z,48.69
2023-02-22T02:45:51.485Z,48.69
2023-02-22T02:48:24.667Z,48.65
2023-02-22T02:50:57.684Z,48.63
2023-02-22T02:53:30.566Z,48.62
2023-02-22T02:56:03.796Z,48.61
2023-02-22T02:58:36.839Z,48.63
2023-02-22T03:01:09.682Z,48.60
2023-02-22T03:03:42.754Z,48.61
2023-02-22T03:06:15.876Z,48.58
2023-02-22T03:08:49.556Z,48.58
2023-02-22T03:11:22.495Z,48.62
2023-02-22T03:13:55.813Z,48.56
2023-02-22T03:16:28.679Z,48.56
2023-02-22T03:19:01.861Z,48.53
2023-02-22T03:21:34.438Z,48.54
2023-02-22T03:24:07.800Z,48.54
2023-02-22T03:26:40.609Z,48.50
2023-02-22T03:29:13.635Z,48.49
2023-02-22T03:31:46.503Z,48.51
2023-02-22T03:34:19.510Z,48.51
2023-02-22T03:36:52.813Z,48.51
2023-02-22T03:39:26.054Z,48.51
2023-02-22T03:41:59.583Z,48.50
2023-02-22T03:44:32.846Z,48.49
2023-02-22T03:47:05.870Z,48.46
2023-02-22T03:49:39.024Z,48.45
2023-02-22T03:52:12.637Z,48.49
2023-02-22T03:54:45.866Z,48.47
2023-02-22T03:57:18.861Z,48.41
2023-02-22T03:59:51.924Z,48.43
2023-02-22T04:02:24.946Z,48.45
2023-02-22T04:04:59.117Z,48.44
2023-02-22T04:07:32.541Z,48.44
2023-02-22T04:10:05.803Z,48.44
2023-02-22T04:12:38.861Z,48.45
2023-02-22T04:15:11.929Z,48.43
2023-02-22T04:17:44.739Z,48.42
2023-02-22T04:20:17.574Z,48.46
2023-02-22T04:22:51.080Z,48.45
2023-02-22T04:25:24.976Z,48.47
2023-02-22T04:27:57.798Z,48.50
2023-02-22T04:30:30.575Z,48.46
2023-02-22T04:33:03.718Z,48.46
2023-02-22T04:35:36.948Z,48.45
2023-02-22T04:38:09.697Z,48.46
2023-02-22T04:40:42.716Z,48.46
2023-02-22T04:43:15.797Z,48.48
2023-02-22T04:45:48.862Z,48.46
2023-02-22T04:48:21.675Z,48.54
2023-02-22T04:50:54.752Z,48.54
2023-02-22T04:53:27.758Z,48.52
2023-02-22T04:56:00.702Z,48.55
2023-02-22T04:58:33.596Z,48.54
2023-02-22T05:01:06.669Z,48.56
2023-02-22T05:03:39.644Z,48.50
2023-02-22T05:06:12.954Z,48.49
2023-02-22T05:08:45.653Z,48.49
2023-02-22T05:11:19.057Z,48.45
2023-02-22T05:13:51.728Z,48.47
2023-02-22T05:16:24.805Z,48.42
2023-02-22T05:18:57.755Z,48.46
2023-02-22T05:21:30.906Z,48.42
2023-02-22T05:24:04.000Z,48.45
2023-02-22T05:26:36.687Z,48.40
2023-02-22T05:29:09.800Z,48.40
2023-02-22T05:31:42.992Z,48.41
2023-02-22T05:34:15.932Z,48.42
2023-02-22T05:36:48.846Z,48.43
2023-02-22T05:39:21.663Z,48.46
2023-02-22T05:41:54.817Z,48.44
2023-02-22T05:44:28.028Z,48.53
2023-02-22T05:47:00.888Z,48.52
2023-02-22T05:49:33.671Z,48.52
2023-02-22T05:52:06.828Z,48.62
2023-02-22T05:54:39.940Z,48.54
2023-02-22T05:57:12.827Z,48.46
2023-02-22T05:59:45.957Z,48.39
2023-02-22T06:02:18.900Z,48.32
2023-02-22T06:04:51.797Z,48.29
2023-02-22T06:07:25.098Z,48.25
2023-02-22T06:09:57.933Z,48.20
2023-02-22T06:12:30.792Z,48.02
2023-02-22T06:15:04.018Z,47.91
2023-02-22T06:17:36.762Z,47.94
2023-02-22T06:20:09.824Z,47.94
2023-02-22T06:22:42.723Z,47.97
2023-02-22T06:25:15.899Z,48.01
2023-02-22T06:27:48.892Z,48.04
2023-02-22T06:30:21.829Z,48.03
2023-02-22T06:32:54.965Z,48.01
2023-02-22T06:35:27.756Z,47.98
2023-02-22T06:38:01.127Z,47.35
2023-02-22T06:40:34.993Z,47.07
2023-02-22T06:43:07.983Z,46.65
2023-02-22T06:45:40.827Z,46.70
2023-02-22T06:48:14.044Z,46.85
2023-02-22T06:50:46.880Z,46.85
2023-02-22T06:53:19.917Z,46.79
2023-02-22T06:55:52.848Z,46.81
2023-02-22T06:58:27.869Z,46.91
2023-02-22T07:01:01.189Z,46.85
2023-02-22T07:03:34.954Z,46.82
2023-02-22T07:06:07.831Z,46.87
2023-02-22T07:08:40.813Z,46.80
2023-02-22T07:11:13.845Z,46.80
2023-02-22T07:13:47.138Z,46.78
2023-02-22T07:16:20.193Z,46.80
2023-02-22T07:18:52.906Z,46.80
2023-02-22T07:21:28.732Z,46.82
2023-02-22T07:24:03.977Z,46.80
2023-02-22T07:26:34.973Z,46.72
2023-02-22T07:29:07.954Z,46.76
2023-02-22T07:31:40.947Z,46.72
2023-02-22T07:34:13.966Z,46.73
2023-02-22T07:36:47.642Z,46.70
2023-02-22T07:39:21.211Z,46.64
2023-02-22T07:41:54.114Z,46.64
2023-02-22T07:44:27.375Z,46.70
2023-02-22T07:47:01.205Z,46.61
2023-02-22T07:49:33.992Z,46.60
2023-02-22T07:52:06.917Z,46.62
2023-02-22T07:54:40.161Z,46.62
2023-02-22T07:57:13.033Z,46.56
2023-02-22T07:59:45.881Z,46.61
2023-02-22T08:02:19.165Z,46.57
2023-02-22T08:04:52.336Z,46.54
2023-02-22T08:07:25.933Z,46.55
2023-02-22T08:09:59.003Z,46.50
2023-02-22T08:12:32.044Z,46.48
2023-02-22T08:15:04.994Z,46.47
2023-02-22T08:17:38.035Z,46.43
2023-02-22T08:20:11.303Z,46.45
2023-02-22T08:22:43.892Z,46.48
2023-02-22T08:25:17.024Z,46.43
2023-02-22T08:27:49.937Z,39.73
2023-02-22T08:30:23.129Z,37.92
2023-02-22T08:32:56.182Z,37.42
2023-02-22T08:35:29.061Z,37.37
2023-02-22T08:38:01.991Z,37.54
2023-02-22T08:40:35.155Z,37.81
2023-02-22T08:43:08.261Z,38.03
2023-02-22T08:45:41.011Z,38.26
2023-02-22T08:48:14.262Z,38.43
2023-02-22T08:50:47.245Z,38.48
2023-02-22T08:53:20.249Z,38.73
2023-02-22T08:55:53.062Z,38.99
2023-02-22T08:58:26.180Z,39.04
2023-02-22T09:00:59.291Z,39.46
2023-02-22T09:03:32.368Z,39.61
2023-02-22T09:06:05.203Z,39.79
2023-02-22T09:08:38.328Z,40.13
2023-02-22T09:11:11.159Z,40.35
2023-02-22T09:13:44.307Z,41.03
2023-02-22T09:16:17.086Z,41.46
2023-02-22T09:18:50.285Z,41.73
2023-02-22T09:21:23.049Z,41.91
2023-02-22T09:23:56.210Z,41.98
2023-02-22T09:26:29.464Z,42.09
2023-02-22T09:29:03.222Z,42.20
2023-02-22T09:31:36.233Z,42.35
2023-02-22T09:34:09.384Z,42.53
2023-02-22T09:36:42.461Z,42.66
2023-02-22T09:39:15.162Z,42.86
2023-02-22T09:41:48.183Z,43.55
2023-02-22T09:44:21.457Z,43.49
2023-02-22T09:46:55.123Z,43.55
2023-02-22T09:49:28.543Z,43.79
2023-02-22T09:52:06.101Z,43.97
2023-02-22T09:54:39.429Z,44.10
2023-02-22T09:57:12.106Z,44.10
2023-02-22T09:59:45.036Z,44.17
2023-02-22T10:02:19.667Z,44.16
2023-02-22T10:04:55.725Z,44.18
2023-02-22T10:07:29.409Z,44.23
2023-02-22T10:10:02.169Z,44.27
2023-02-22T10:12:35.442Z,44.33
2023-02-22T10:15:08.281Z,44.32
2023-02-22T10:17:41.276Z,44.51
2023-02-22T10:20:14.421Z,44.49
2023-02-22T10:22:47.397Z,44.37
2023-02-22T10:25:20.570Z,44.53
2023-02-22T10:27:54.086Z,44.57
2023-02-22T10:30:27.186Z,44.63
2023-02-22T10:33:00.418Z,44.59
2023-02-22T10:35:33.603Z,44.57
2023-02-22T10:38:07.472Z,44.57
2023-02-22T10:40:40.386Z,44.58
2023-02-22T10:43:13.476Z,44.54
2023-02-22T10:45:46.334Z,44.55
2023-02-22T10:48:33.116Z,44.47
2023-02-22T10:51:06.491Z,44.60
2023-02-22T10:53:39.309Z,44.54
2023-02-22T10:56:12.667Z,44.60
2023-02-22T10:58:46.343Z,44.58
2023-02-22T11:01:19.775Z,44.40
2023-02-22T11:03:52.438Z,44.46
2023-02-22T11:06:25.589Z,44.43
2023-02-22T11:08:58.590Z,44.46
2023-02-22T11:11:31.467Z,44.44
2023-02-22T11:14:04.264Z,44.50
2023-02-22T11:16:37.310Z,44.41
2023-02-22T11:19:10.410Z,44.45
2023-02-22T11:21:44.163Z,44.39
2023-02-22T11:24:20.368Z,44.40
2023-02-22T11:26:53.179Z,44.48
2023-02-22T11:29:26.541Z,44.41
2023-02-22T11:31:59.361Z,44.52
2023-02-22T11:34:32.251Z,44.45
2023-02-22T11:37:05.453Z,44.43
2023-02-22T11:39:38.431Z,44.50
2023-02-22T11:42:11.314Z,44.44
2023-02-22T11:44:44.651Z,44.53
2023-02-22T11:47:18.312Z,44.56
2023-02-22T11:49:51.480Z,44.54
2023-02-22T11:52:26.154Z,44.55
2023-02-22T11:54:57.574Z,44.58
2023-02-22T11:57:30.461Z,44.59
2023-02-22T12:00:03.508Z,44.61
2023-02-22T12:02:37.473Z,44.72
2023-02-22T12:05:09.416Z,44.77
2023-02-22T12:07:42.429Z,44.75
2023-02-22T12:10:15.552Z,44.86
2023-02-22T12:12:48.312Z,44.86
2023-02-22T12:15:21.252Z,44.86
2023-02-22T12:17:59.731Z,44.89
2023-02-22T12:20:27.512Z,44.88
2023-02-22T12:23:00.571Z,44.93
2023-02-22T12:25:33.572Z,44.93
2023-02-22T12:28:15.631Z,44.93
2023-02-22T12:30:39.329Z,44.94
2023-02-22T12:33:12.379Z,44.92
2023-02-22T12:35:45.676Z,44.98
2023-02-22T12:38:18.348Z,44.97
2023-02-22T12:40:51.527Z,45.00
2023-02-22T12:43:24.294Z,44.97
2023-02-22T12:45:57.316Z,44.97
2023-02-22T12:48:30.666Z,44.96
2023-02-22T12:51:03.330Z,44.99
2023-02-22T12:53:36.541Z,44.96
2023-02-22T12:56:09.522Z,44.96
2023-02-22T12:58:42.588Z,44.88
2023-02-22T13:01:16.169Z,44.92
2023-02-22T13:03:48.719Z,44.91
2023-02-22T13:06:21.371Z,44.92
2023-02-22T13:08:54.354Z,44.88
2023-02-22T13:11:27.473Z,44.87
2023-02-22T13:14:00.480Z,44.86
2023-02-22T13:16:33.518Z,44.88
2023-02-22T13:19:06.396Z,44.86
2023-02-22T13:21:39.383Z,44.82
2023-02-22T13:24:12.614Z,44.83
2023-02-22T13:26:45.499Z,44.83
2023-02-22T13:29:18.370Z,44.81
2023-02-22T13:31:51.868Z,44.61
2023-02-22T13:34:24.384Z,44.63
2023-02-22T13:36:57.402Z,44.69
2023-02-22T13:39:30.557Z,44.70
2023-02-22T13:42:03.782Z,44.69
2023-02-22T13:44:36.702Z,44.67
2023-02-22T13:47:09.508Z,44.67
2023-02-22T13:49:48.537Z,44.67
2023-02-22T13:52:21.413Z,44.67
2023-02-22T13:54:54.840Z,44.68
2023-02-22T13:57:27.771Z,44.64
2023-02-22T14:00:00.407Z,44.64
2023-02-22T14:02:33.499Z,44.62
2023-02-22T14:05:06.608Z,44.62
2023-02-22T14:07:39.631Z,44.62
2023-02-22T14:10:12.904Z,44.60
2023-02-22T14:12:46.565Z,44.61
2023-02-22T14:15:29.050Z,44.62
2023-02-22T14:17:52.613Z,44.61
2023-02-22T14:20:25.991Z,44.59
2023-02-22T14:22:59.609Z,44.57
2023-02-22T14:25:32.577Z,44.58
2023-02-22T14:28:05.586Z,44.56
2023-02-22T14:30:38.709Z,44.56
2023-02-22T14:33:11.584Z,44.55
2023-02-22T14:35:50.140Z,44.52
2023-02-22T14:38:17.469Z,44.52
2023-02-22T14:40:50.511Z,44.49
2023-02-22T14:43:23.598Z,44.51
2023-02-22T14:45:56.615Z,44.49
2023-02-22T14:48:29.519Z,44.53
2023-02-22T14:51:11.729Z,44.53
2023-02-22T14:53:35.499Z,44.53
2023-02-22T14:56:11.598Z,44.53
2023-02-22T14:58:44.820Z,44.54
2023-02-22T15:01:18.053Z,44.53
2023-02-22T15:04:01.979Z,44.56
2023-02-22T15:06:23.690Z,44.56
2023-02-22T15:08:56.654Z,44.56
2023-02-22T15:11:29.969Z,44.55
2023-02-22T15:14:04.542Z,44.54
2023-02-22T15:16:36.698Z,44.59
2023-02-22T15:19:09.560Z,44.58
2023-02-22T15:21:45.710Z,44.60
2023-02-22T15:24:18.536Z,44.66
2023-02-22T15:27:01.956Z,44.63
2023-02-22T15:29:25.756Z,44.65
2023-02-22T15:31:58.823Z,44.66
2023-02-22T15:34:31.624Z,44.67
2023-02-22T15:37:06.628Z,44.69
2023-02-22T15:39:37.774Z,44.70
2023-02-22T15:42:10.687Z,44.72
2023-02-22T15:44:43.794Z,44.74
2023-02-22T15:47:16.598Z,44.75
2023-02-22T15:49:49.838Z,44.76
2023-02-22T15:52:22.846Z,44.78
2023-02-22T15:54:55.583Z,44.78
2023-02-22T15:57:28.581Z,44.79
2023-02-22T16:00:01.624Z,44.81
2023-02-22T16:02:34.996Z,44.79
2023-02-22T16:05:07.602Z,44.82
2023-02-22T16:07:42.061Z,44.81
2023-02-22T16:10:13.656Z,44.81
2023-02-22T16:12:46.768Z,44.80
2023-02-22T16:15:19.641Z,44.85
2023-02-22T16:18:02.011Z,44.83
2023-02-22T16:20:25.636Z,44.88
2023-02-22T16:22:58.685Z,44.90
2023-02-22T16:25:31.922Z,44.85
2023-02-22T16:28:04.639Z,44.89
2023-02-22T16:30:38.034Z,44.87
2023-02-22T16:33:10.679Z,44.89
2023-02-22T16:35:43.632Z,44.83
2023-02-22T16:38:17.200Z,44.97
2023-02-22T16:40:49.708Z,45.02
2023-02-22T16:43:22.862Z,45.04
2023-02-22T16:45:55.946Z,45.19
2023-02-22T16:48:28.875Z,45.22
2023-02-22T16:51:01.705Z,45.31
2023-02-22T16:53:34.678Z,45.35
2023-02-22T16:56:07.833Z,45.39
2023-02-22T16:58:41.234Z,45.49
2023-02-22T17:01:14.912Z,45.51
2023-02-22T17:03:47.908Z,45.57
2023-02-22T17:06:20.999Z,45.63
2023-02-22T17:08:54.028Z,45.70
2023-02-22T17:11:26.930Z,45.72
2023-02-22T17:13:59.992Z,45.77
2023-02-22T17:16:32.904Z,45.81
2023-02-22T17:19:05.716Z,45.87
2023-02-22T17:21:38.893Z,45.87
2023-02-22T17:24:11.735Z,45.92
2023-02-22T17:26:45.071Z,45.96
2023-02-22T17:29:18.004Z,45.96
2023-02-22T17:31:50.984Z,45.99
2023-02-22T17:34:23.725Z,45.94
2023-02-22T17:36:57.136Z,45.97
2023-02-22T17:39:29.999Z,45.97
2023-02-22T17:42:03.212Z,45.99
2023-02-22T17:44:36.858Z,45.99
2023-02-22T17:47:10.136Z,45.99
2023-02-22T17:49:43.113Z,45.97
2023-02-22T17:52:16.108Z,46.02
2023-02-22T17:54:49.364Z,45.99
2023-02-22T17:57:22.914Z,45.98
2023-02-22T17:59:56.304Z,46.00
2023-02-22T18:02:30.066Z,45.99
2023-02-22T18:05:02.809Z,46.01
2023-02-22T18:07:35.926Z,46.04
2023-02-22T18:10:08.800Z,46.01
2023-02-22T18:12:41.795Z,46.03
2023-02-22T18:15:15.146Z,46.02
2023-02-22T18:17:48.170Z,46.01
2023-02-22T18:20:20.920Z,46.04
2023-02-22T18:22:53.816Z,46.00
2023-02-22T18:25:27.125Z,46.01
2023-02-22T18:28:00.162Z,45.96
2023-02-22T18:30:33.012Z,45.96
2023-02-22T18:33:05.981Z,46.00
2023-02-22T18:35:39.156Z,46.01
2023-02-22T18:38:12.439Z,46.04
2023-02-22T18:40:45.106Z,46.10
2023-02-22T18:43:18.198Z,46.07
2023-02-22T18:45:50.947Z,46.09
2023-02-22T18:48:23.876Z,46.14
2023-02-22T18:50:56.842Z,46.11
2023-02-22T18:53:29.861Z,46.25
2023-02-22T18:56:08.754Z,46.35
2023-02-22T18:58:41.878Z,46.36
2023-02-22T19:01:14.859Z,46.39
2023-02-22T19:03:48.197Z,46.44
2023-02-22T19:06:21.213Z,46.45
2023-02-22T19:08:54.210Z,46.49
2023-02-22T19:11:27.016Z,46.51
2023-02-22T19:14:00.085Z,46.54
2023-02-22T19:16:33.434Z,46.46
2023-02-22T19:19:05.932Z,46.50
2023-02-22T19:21:39.036Z,46.50
2023-02-22T19:24:12.169Z,46.47
2023-02-22T19:26:45.047Z,46.19
2023-02-22T19:29:18.181Z,46.25
2023-02-22T19:31:51.487Z,46.14
2023-02-22T19:34:24.344Z,46.17
2023-02-22T19:36:57.303Z,46.09
2023-02-22T19:39:30.109Z,46.09
2023-02-22T19:42:03.065Z,45.82
2023-02-22T19:44:35.983Z,45.90
2023-02-22T19:47:09.174Z,45.88
2023-02-22T19:49:42.144Z,46.00
2023-02-22T19:52:15.211Z,46.02
2023-02-22T19:54:48.099Z,46.01
2023-02-22T19:57:20.945Z,46.02
2023-02-22T19:59:54.246Z,45.99
2023-02-22T20:02:27.270Z,46.06
2023-02-22T20:05:00.136Z,46.10
2023-02-22T20:07:33.139Z,46.10
2023-02-22T20:10:06.086Z,46.15
2023-02-22T20:12:39.106Z,46.12
2023-02-22T20:15:12.318Z,46.14
2023-02-22T20:17:45.039Z,46.19
2023-02-22T20:20:18.048Z,46.19
2023-02-22T20:22:51.163Z,46.17
2023-02-22T20:25:24.078Z,46.21
2023-02-22T20:27:57.002Z,46.19
2023-02-22T20:30:30.149Z,46.20
2023-02-22T20:33:03.508Z,46.16
2023-02-22T20:35:36.319Z,46.22
2023-02-22T20:38:09.077Z,46.21
2023-02-22T20:40:42.179Z,46.23
2023-02-22T20:43:15.026Z,46.19
2023-02-22T20:45:48.343Z,46.24
2023-02-22T20:48:21.038Z,46.25
2023-02-22T20:50:54.408Z,46.22
2023-02-22T20:53:27.378Z,46.26
2023-02-22T20:56:00.044Z,46.26
2023-02-22T20:58:33.470Z,46.25
2023-02-22T21:01:07.338Z,46.25
2023-02-22T21:03:40.390Z,46.25
2023-02-22T21:06:13.098Z,46.29
2023-02-22T21:08:46.299Z,46.26
2023-02-22T21:11:19.561Z,46.23
2023-02-22T21:13:52.330Z,46.28
2023-02-22T21:16:25.346Z,46.29
2023-02-22T21:18:58.186Z,46.31
2023-02-22T21:21:31.411Z,46.27
2023-02-22T21:24:04.071Z,46.32
2023-02-22T21:26:37.129Z,46.25
2023-02-22T21:29:10.190Z,46.31
2023-02-22T21:31:43.583Z,46.31
2023-02-22T21:34:16.080Z,46.22
2023-02-22T21:36:49.479Z,45.92
2023-02-22T21:39:22.107Z,46.12
2023-02-22T21:41:55.199Z,46.10
2023-02-22T21:44:28.278Z,46.12
2023-02-22T21:47:01.444Z,46.16
2023-02-22T21:49:34.286Z,46.19
2023-02-22T21:52:07.338Z,46.21
2023-02-22T21:54:40.445Z,46.24
2023-02-22T21:57:13.209Z,46.23
2023-02-22T21:59:46.477Z,46.28
2023-02-22T22:02:23.267Z,46.25
2023-02-22T22:04:56.491Z,46.30
2023-02-22T22:07:29.454Z,46.34
2023-02-22T22:10:02.533Z,46.37
2023-02-22T22:12:39.411Z,46.33
2023-02-22T22:15:08.646Z,46.32
2023-02-22T22:17:42.510Z,46.26
2023-02-22T22:20:15.408Z,46.22
2023-02-22T22:22:48.590Z,46.33
2023-02-22T22:25:21.186Z,46.37
2023-02-22T22:27:54.438Z,46.34
2023-02-22T22:30:27.463Z,46.40
2023-02-22T22:33:00.606Z,46.39
2023-02-22T22:35:33.749Z,46.46
2023-02-22T22:38:07.540Z,46.46
2023-02-22T22:40:40.539Z,46.50
2023-02-22T22:43:14.353Z,46.49
2023-02-22T22:45:47.428Z,46.53
2023-02-22T22:48:20.208Z,46.50
2023-02-22T22:50:53.524Z,46.49
2023-02-22T22:53:26.564Z,46.50
2023-02-22T22:55:59.349Z,46.50
2023-02-22T22:58:32.327Z,46.54
2023-02-22T23:01:05.312Z,46.55
2023-02-22T23:03:38.817Z,46.58
2023-02-22T23:06:11.649Z,46.55
2023-02-22T23:08:44.412Z,46.58
2023-02-22T23:11:17.909Z,46.52
2023-02-22T23:13:50.684Z,46.59
2023-02-22T23:16:24.582Z,46.62
2023-02-22T23:18:57.638Z,46.85
2023-02-22T23:21:30.522Z,46.77
2023-02-22T23:24:03.385Z,46.85
2023-02-22T23:26:36.310Z,46.81
2023-02-22T23:29:09.546Z,46.88
2023-02-22T23:31:42.749Z,46.92
2023-02-22T23:34:15.601Z,46.92
2023-02-22T23:36:48.621Z,47.01
2023-02-22T23:39:21.350Z,46.98
2023-02-22T23:41:54.454Z,46.99
2023-02-22T23:44:27.396Z,47.06
2023-02-22T23:47:00.700Z,47.19
2023-02-22T23:49:33.473Z,47.11
2023-02-22T23:52:06.791Z,47.19
2023-02-22T23:54:40.714Z,47.18
2023-02-22T23:57:13.303Z,47.27
2023-02-22T23:59:46.498Z,47.34
